Time;durP1;ratioP1;P1;durP2;ratioP2;P2;SDS_P1;SDS_P2;PMS_P1;PMS_P2;Temp;Humidity;BMP_temperature;BMP_pressure;BME280_temperature;BME280_humidity;BME280_pressure;Samples;Min_cycle;Max_cycle;Signal;HPM_P1;HPM_P2
2022/09/29 00:01:32;;;;;;;11.50;6.47;;;7.40;99.90;;;;;;5975003;24;20052;-88
2022/09/29 00:03:57;;;;;;;11.05;6.80;;;7.30;99.90;;;;;;5977361;23;20473;-89
2022/09/29 00:06:23;;;;;;;9.93;6.70;;;7.40;99.90;;;;;;5976132;24;20050;-89
2022/09/29 00:08:49;;;;;;;9.45;6.20;;;7.40;99.90;;;;;;5975282;24;20466;-89
2022/09/29 00:11:18;;;;;;;8.55;5.97;;;7.40;99.90;;;;;;5974858;24;20024;-89
2022/09/29 00:13:45;;;;;;;9.57;4.80;;;7.20;99.90;;;;;;5974575;24;20070;-89
2022/09/29 00:16:11;;;;;;;9.02;5.55;;;7.30;99.90;;;;;;5977419;23;20024;-88
2022/09/29 00:18:36;;;;;;;9.75;6.53;;;7.00;99.90;;;;;;5976791;23;20060;-88
2022/09/29 00:21:06;;;;;;;8.82;6.03;;;7.20;99.90;;;;;;5974435;24;20021;-88
2022/09/29 00:23:33;;;;;;;9.60;4.78;;;7.10;99.90;;;;;;5976947;23;20023;-89
2022/09/29 00:26:05;;;;;;;11.02;8.35;;;7.00;99.90;;;;;;5975235;24;20023;-88
2022/09/29 00:28:32;;;;;;;9.85;4.75;;;7.10;99.90;;;;;;5974684;24;20474;-87
2022/09/29 00:31:00;;;;;;;7.97;4.38;;;7.10;99.90;;;;;;5977704;23;20022;-88
2022/09/29 00:33:29;;;;;;;12.95;10.18;;;6.90;99.90;;;;;;5977275;23;20024;-88
2022/09/29 00:36:00;;;;;;;9.98;5.78;;;7.00;99.90;;;;;;5974735;24;20020;-88
2022/09/29 00:38:27;;;;;;;9.13;5.43;;;6.90;99.90;;;;;;5975235;24;20030;-88
2022/09/29 00:40:52;;;;;;;10.52;5.05;;;6.80;99.90;;;;;;5975233;24;20479;-89
2022/09/29 00:43:40;;;;;;;11.80;9.75;;;6.80;99.90;;;;;;5976476;24;20110;-89
2022/09/29 00:46:06;;;;;;;8.90;5.78;;;6.80;99.90;;;;;;5976355;23;20020;-88
2022/09/29 00:48:32;;;;;;;9.85;6.20;;;6.80;99.90;;;;;;5975353;24;20024;-88
2022/09/29 00:50:58;;;;;;;8.15;4.63;;;6.80;99.90;;;;;;5975084;24;20008;-88
2022/09/29 00:53:25;;;;;;;9.07;5.43;;;6.70;99.90;;;;;;5975299;24;20024;-88
2022/09/29 00:55:54;;;;;;;9.55;4.63;;;6.60;99.90;;;;;;5974414;24;20020;-88
2022/09/29 00:58:30;;;;;;;8.18;5.68;;;6.60;99.90;;;;;;5974634;24;20016;-88
2022/09/29 01:00:55;;;;;;;7.85;5.20;;;6.50;99.90;;;;;;5975180;24;20016;-88
2022/09/29 01:03:24;;;;;;;9.82;7.55;;;6.50;99.90;;;;;;5974836;24;20013;-88
2022/09/29 01:06:05;;;;;;;8.85;5.28;;;6.60;99.90;;;;;;5973803;24;20035;-88
2022/09/29 01:09:03;;;;;;;8.95;4.63;;;6.60;99.90;;;;;;5974420;24;20028;-89
2022/09/29 01:11:29;;;;;;;12.13;6.55;;;6.50;99.90;;;;;;5973498;23;20462;-88
2022/09/29 01:14:02;;;;;;;8.50;4.97;;;6.40;99.90;;;;;;5974560;24;20027;-88
2022/09/29 01:16:28;;;;;;;10.73;5.38;;;6.40;99.90;;;;;;5974266;24;20020;-89
2022/09/29 01:18:54;;;;;;;9.68;5.65;;;6.40;99.90;;;;;;5974722;24;20047;-88
2022/09/29 01:21:46;;;;;;;9.10;5.15;;;6.40;99.90;;;;;;5973893;24;20115;-88
2022/09/29 01:24:14;;;;;;;;;;;6.40;99.90;;;;;;5891432;24;20032;-89
2022/09/29 01:27:01;;;;;;;9.95;5.57;;;6.30;99.90;;;;;;5889819;24;19916;-88
2022/09/29 01:29:41;;;;;;;8.25;3.83;;;6.20;99.90;;;;;;5867921;24;20018;-88
2022/09/29 01:32:17;;;;;;;7.05;3.65;;;6.20;99.90;;;;;;5868406;24;20159;-88
2022/09/29 01:34:55;;;;;;;7.75;4.50;;;6.10;99.90;;;;;;5866815;24;20080;-88
2022/09/29 01:37:28;;;;;;;10.65;5.07;;;6.10;99.90;;;;;;5890542;24;20096;-89
2022/09/29 01:40:02;;;;;;;8.93;6.03;;;6.10;99.90;;;;;;5868309;24;20022;-88
2022/09/29 01:42:42;;;;;;;8.48;5.68;;;6.20;99.90;;;;;;5890441;24;20018;-87
2022/09/29 01:45:31;;;;;;;8.85;5.70;;;6.20;99.90;;;;;;5890318;24;20024;-88
2022/09/29 01:48:04;;;;;;;8.32;5.07;;;6.10;99.90;;;;;;5867392;24;20032;-88
2022/09/29 01:50:38;;;;;;;9.05;5.10;;;6.10;99.90;;;;;;5866971;24;20028;-87
2022/09/29 01:53:11;;;;;;;8.73;5.07;;;6.10;99.90;;;;;;5890472;24;20164;-88
2022/09/29 01:55:43;;;;;;;8.70;5.53;;;6.10;99.90;;;;;;5866359;24;20045;-88
2022/09/29 01:58:15;;;;;;;10.40;5.40;;;6.10;99.90;;;;;;5868013;24;20025;-88
2022/09/29 02:00:49;;;;;;;10.48;6.22;;;6.00;99.90;;;;;;5896780;24;20016;-89
2022/09/29 02:03:36;;;;;;;9.32;5.63;;;6.00;99.90;;;;;;5975927;23;20016;-88
2022/09/29 02:06:14;;;;;;;9.40;5.20;;;6.00;99.90;;;;;;5975145;23;20035;-88
2022/09/29 02:08:55;;;;;;;15.18;6.65;;;6.00;99.90;;;;;;5974520;24;20387;-88
2022/09/29 02:11:21;;;;;;;11.30;5.78;;;6.10;99.90;;;;;;5973707;24;20047;-88
2022/09/29 02:14:00;;;;;;;9.60;4.90;;;6.10;99.90;;;;;;5973830;24;20024;-88
2022/09/29 02:16:31;;;;;;;11.85;5.50;;;6.10;99.90;;;;;;5975057;23;20017;-88
2022/09/29 02:19:28;;;;;;;14.03;5.70;;;6.10;99.90;;;;;;5974244;24;20888;-88
2022/09/29 02:21:54;;;;;;;15.75;6.78;;;6.00;99.90;;;;;;5968041;23;20020;-89
2022/09/29 02:24:23;;;;;;;13.63;6.22;;;6.10;99.90;;;;;;5972499;24;20020;-88
2022/09/29 02:26:50;;;;;;;7.85;4.57;;;6.00;99.90;;;;;;5975662;23;20080;-88
2022/09/29 02:29:16;;;;;;;13.13;5.18;;;5.90;99.90;;;;;;5975610;23;20008;-88
2022/09/29 02:31:44;;;;;;;14.18;5.35;;;6.00;99.90;;;;;;5975569;24;20020;-88
2022/09/29 02:34:13;;;;;;;9.55;6.43;;;6.00;99.90;;;;;;5976417;23;20020;-88
2022/09/29 02:36:53;;;;;;;10.18;5.93;;;6.00;99.90;;;;;;5973826;24;20048;-88
2022/09/29 02:39:26;;;;;;;33.88;7.53;;;6.00;99.90;;;;;;5974984;23;20016;-87
2022/09/29 02:42:03;;;;;;;17.45;4.97;;;6.10;99.90;;;;;;5975499;24;20104;-89
2022/09/29 02:44:53;;;;;;;40.03;8.43;;;6.10;99.90;;;;;;5974291;24;20012;-89
2022/09/29 02:47:35;;;;;;;23.45;6.63;;;6.10;99.90;;;;;;5976002;23;20016;-89
2022/09/29 02:50:19;;;;;;;25.20;6.57;;;6.00;99.90;;;;;;5973446;24;20187;-88
2022/09/29 02:52:54;;;;;;;25.88;6.45;;;6.00;99.90;;;;;;5974574;24;20020;-88
2022/09/29 02:55:31;;;;;;;13.55;5.05;;;6.10;99.90;;;;;;5973613;24;20020;-88
2022/09/29 02:58:13;;;;;;;40.28;7.47;;;6.00;99.90;;;;;;5974064;24;20024;-88
2022/09/29 03:00:39;;;;;;;29.83;7.13;;;6.00;99.90;;;;;;5973550;24;20024;-88
2022/09/29 03:03:05;;;;;;;18.38;6.70;;;6.00;99.90;;;;;;5973485;24;20095;-88
2022/09/29 03:05:30;;;;;;;10.25;5.63;;;5.90;99.90;;;;;;5973395;24;20140;-89
2022/09/29 03:07:56;;;;;;;30.08;6.43;;;5.90;99.90;;;;;;5974244;23;20545;-88
2022/09/29 03:10:22;;;;;;;18.90;6.82;;;5.90;99.90;;;;;;5975734;24;20020;-87
2022/09/29 03:12:47;;;;;;;26.05;8.10;;;5.90;99.90;;;;;;5973017;24;20347;-87
2022/09/29 03:15:13;;;;;;;21.92;6.82;;;5.90;99.90;;;;;;5975675;24;20018;-88
2022/09/29 03:17:39;;;;;;;21.80;7.13;;;5.90;99.90;;;;;;5975575;24;20044;-88
2022/09/29 03:20:06;;;;;;;20.13;7.72;;;5.90;99.90;;;;;;5974858;24;20064;-89
2022/09/29 03:22:31;;;;;;;19.15;6.63;;;5.90;99.90;;;;;;5973624;24;20394;-89
2022/09/29 03:24:57;;;;;;;18.38;6.60;;;5.90;99.90;;;;;;5973458;24;20020;-88
2022/09/29 03:27:23;;;;;;;31.90;8.20;;;5.80;99.90;;;;;;5978103;23;20092;-88
2022/09/29 03:29:49;;;;;;;43.42;7.68;;;5.80;99.90;;;;;;5976628;24;20292;-88
2022/09/29 03:32:15;;;;;;;78.93;15.75;;;5.80;99.90;;;;;;5977505;24;20059;-88
2022/09/29 03:34:41;;;;;;;49.30;10.93;;;5.90;99.90;;;;;;5976962;24;20016;-88
2022/09/29 03:37:07;;;;;;;56.47;9.82;;;5.80;99.90;;;;;;5976811;24;20027;-87
2022/09/29 03:39:32;;;;;;;30.85;7.20;;;5.80;99.90;;;;;;5976359;24;20016;-88
2022/09/29 03:41:59;;;;;;;16.10;5.00;;;5.70;99.90;;;;;;5976433;24;20094;-88
2022/09/29 03:44:24;;;;;;;17.27;7.47;;;5.70;99.90;;;;;;5976913;24;20012;-88
2022/09/29 03:46:50;;;;;;;15.55;6.65;;;5.70;99.90;;;;;;5975940;24;20093;-87
2022/09/29 03:49:16;;;;;;;14.73;7.15;;;5.70;99.90;;;;;;5977146;24;20382;-87
2022/09/29 03:51:43;;;;;;;16.80;5.38;;;5.70;99.90;;;;;;5975901;24;20076;-88
2022/09/29 03:54:09;;;;;;;11.60;6.18;;;5.70;99.90;;;;;;5978860;23;20398;-87
2022/09/29 03:56:36;;;;;;;19.88;7.43;;;5.60;99.90;;;;;;5977418;24;20012;-88
2022/09/29 03:59:04;;;;;;;10.25;5.93;;;5.70;99.90;;;;;;5976444;24;20072;-87
2022/09/29 04:01:30;;;;;;;29.20;7.53;;;5.70;99.90;;;;;;5976048;24;20033;-87
2022/09/29 04:03:57;;;;;;;13.40;6.95;;;5.70;99.90;;;;;;5978316;23;20051;-86
2022/09/29 04:06:23;;;;;;;11.00;5.57;;;5.70;99.90;;;;;;5999388;23;20030;-86
2022/09/29 04:08:49;;;;;;;9.75;5.03;;;5.60;99.90;;;;;;5976407;24;20024;-87
2022/09/29 04:11:14;;;;;;;9.05;5.43;;;5.50;99.90;;;;;;5975325;24;20016;-87
2022/09/29 04:13:40;;;;;;;15.05;7.05;;;5.60;99.90;;;;;;5977080;24;20020;-87
2022/09/29 04:16:06;;;;;;;18.08;5.95;;;5.50;99.90;;;;;;5954089;24;20028;-87
2022/09/29 04:18:32;;;;;;;11.15;6.30;;;5.50;99.90;;;;;;5975909;24;20039;-87
2022/09/29 04:21:02;;;;;;;11.43;5.75;;;5.50;99.90;;;;;;5977803;23;20068;-89
2022/09/29 04:23:29;;;;;;;13.23;7.00;;;5.50;99.90;;;;;;5978570;23;20024;-87
2022/09/29 04:25:58;;;;;;;16.02;5.78;;;5.50;99.90;;;;;;5977640;23;20044;-87
2022/09/29 04:28:24;;;;;;;19.42;5.95;;;5.50;99.90;;;;;;5975749;24;20076;-87
2022/09/29 04:30:50;;;;;;;15.43;6.07;;;5.50;99.90;;;;;;5976220;24;20020;-87
2022/09/29 04:33:16;;;;;;;12.88;6.45;;;5.50;99.90;;;;;;5975819;24;20023;-87
2022/09/29 04:35:42;;;;;;;15.05;7.07;;;5.50;99.90;;;;;;5976379;24;20484;-87
2022/09/29 04:38:08;;;;;;;18.48;6.50;;;5.40;99.90;;;;;;5975551;24;20358;-87
2022/09/29 04:40:34;;;;;;;26.65;8.38;;;5.50;99.90;;;;;;5974269;24;20027;-87
2022/09/29 04:43:00;;;;;;;27.38;9.30;;;5.50;99.90;;;;;;5975039;24;20020;-87
2022/09/29 04:45:26;;;;;;;20.65;5.97;;;5.40;99.90;;;;;;5974591;24;20036;-87
2022/09/29 04:47:52;;;;;;;29.60;8.05;;;5.40;99.90;;;;;;5974603;24;20080;-86
2022/09/29 04:50:17;;;;;;;14.75;5.47;;;5.30;99.90;;;;;;5974764;24;20015;-87
2022/09/29 04:52:44;;;;;;;16.80;5.97;;;5.20;99.90;;;;;;5976679;24;20039;-86
2022/09/29 04:55:10;;;;;;;10.85;5.82;;;5.20;99.90;;;;;;5974470;24;20024;-87
2022/09/29 04:57:40;;;;;;;9.95;5.20;;;5.20;99.90;;;;;;5972402;24;20059;-86
2022/09/29 05:00:07;;;;;;;11.60;6.72;;;5.10;99.90;;;;;;5974042;24;20026;-88
2022/09/29 05:02:34;;;;;;;13.55;6.80;;;5.10;99.90;;;;;;5975976;24;20048;-88
2022/09/29 05:05:00;;;;;;;13.38;5.93;;;5.10;99.90;;;;;;5974016;24;20391;-89
2022/09/29 05:07:26;;;;;;;8.45;5.55;;;5.10;99.90;;;;;;5976011;23;20020;-88
2022/09/29 05:09:52;;;;;;;10.43;6.43;;;5.00;99.90;;;;;;5974644;24;20017;-88
2022/09/29 05:12:17;;;;;;;10.60;7.05;;;5.00;99.90;;;;;;5974018;24;20020;-87
2022/09/29 05:14:43;;;;;;;12.05;5.22;;;5.00;99.90;;;;;;5975100;23;20458;-85
2022/09/29 05:17:09;;;;;;;8.98;5.38;;;4.90;99.90;;;;;;5974544;24;20434;-86
2022/09/29 05:19:34;;;;;;;9.77;6.88;;;4.90;99.90;;;;;;5973759;24;20020;-86
2022/09/29 05:22:00;;;;;;;9.50;6.65;;;4.80;99.90;;;;;;5973879;24;20099;-86
2022/09/29 05:24:26;;;;;;;8.50;5.53;;;4.90;99.90;;;;;;5974237;24;20396;-86
2022/09/29 05:26:52;;;;;;;10.52;6.80;;;4.80;99.90;;;;;;5974054;24;20020;-87
2022/09/29 05:29:18;;;;;;;10.38;6.53;;;4.90;99.90;;;;;;5973676;24;20027;-86
2022/09/29 05:31:44;;;;;;;8.82;5.20;;;4.90;99.90;;;;;;5973534;24;20020;-86
2022/09/29 05:34:09;;;;;;;9.05;5.78;;;4.80;99.90;;;;;;5975051;24;20020;-87
2022/09/29 05:36:35;;;;;;;10.82;6.47;;;4.80;99.90;;;;;;5973543;24;20020;-86
2022/09/29 05:39:01;;;;;;;8.57;5.32;;;4.80;99.90;;;;;;5972794;24;20463;-86
2022/09/29 05:41:27;;;;;;;9.18;5.20;;;4.80;99.90;;;;;;5950454;24;20047;-86
2022/09/29 05:43:53;;;;;;;9.50;6.63;;;4.70;99.90;;;;;;5975334;23;20051;-86
2022/09/29 05:46:21;;;;;;;9.18;5.85;;;4.70;99.90;;;;;;5973999;24;20046;-86
2022/09/29 05:48:47;;;;;;;11.27;7.57;;;4.70;99.90;;;;;;5972490;24;20087;-86
2022/09/29 05:51:15;;;;;;;15.68;6.90;;;4.70;99.90;;;;;;5974153;24;20349;-86
2022/09/29 05:53:41;;;;;;;18.65;8.18;;;4.70;99.90;;;;;;5975955;23;20087;-86
2022/09/29 05:56:13;;;;;;;25.63;7.93;;;4.80;99.90;;;;;;5975994;23;20095;-86
2022/09/29 05:58:40;;;;;;;39.40;9.98;;;4.80;99.90;;;;;;5974733;24;20020;-87
2022/09/29 06:01:16;;;;;;;32.80;9.27;;;4.80;99.90;;;;;;5974225;24;20020;-87
2022/09/29 06:03:42;;;;;;;44.60;11.32;;;4.80;99.90;;;;;;5970110;24;20404;-88
2022/09/29 06:06:19;;;;;;;31.42;9.63;;;4.80;99.90;;;;;;5974681;23;20020;-89
2022/09/29 06:08:48;;;;;;;25.58;8.90;;;4.80;99.90;;;;;;5974747;23;20008;-89
2022/09/29 06:11:16;;;;;;;29.85;8.50;;;4.90;99.90;;;;;;5974222;24;20039;-88
2022/09/29 06:13:49;;;;;;;20.80;7.82;;;4.90;99.90;;;;;;5973824;24;20027;-89
2022/09/29 06:16:20;;;;;;;18.25;7.80;;;4.90;99.90;;;;;;5975927;23;20048;-88
2022/09/29 06:18:46;;;;;;;21.48;9.27;;;4.90;99.90;;;;;;5974514;24;20357;-89
2022/09/29 06:21:19;;;;;;;18.48;8.20;;;4.90;99.90;;;;;;5976029;23;20087;-88
2022/09/29 06:23:45;;;;;;;18.27;8.68;;;5.00;99.90;;;;;;5973095;24;20022;-89
2022/09/29 06:26:13;;;;;;;12.30;7.63;;;5.00;99.90;;;;;;5974577;24;20163;-88
2022/09/29 06:28:39;;;;;;;25.35;8.05;;;5.00;99.90;;;;;;5973815;24;20012;-89
2022/09/29 06:31:16;;;;;;;14.88;8.32;;;5.10;99.90;;;;;;5972871;24;20016;-88
2022/09/29 06:33:42;;;;;;;19.48;10.38;;;5.10;99.90;;;;;;5973792;24;20473;-88
2022/09/29 06:39:03;;;;;;;15.95;10.32;;;5.20;99.90;;;;;;5975144;24;20020;-88
2022/09/29 06:41:29;;;;;;;16.20;11.30;;;5.20;99.90;;;;;;5975576;23;20503;-88
2022/09/29 06:43:55;;;;;;;14.82;9.32;;;5.20;99.90;;;;;;5974103;24;20016;-87
2022/09/29 06:46:21;;;;;;;14.88;11.05;;;5.30;99.90;;;;;;5974922;23;20308;-88
2022/09/29 06:48:47;;;;;;;16.08;10.40;;;5.40;99.90;;;;;;5975932;23;20014;-88
2022/09/29 06:51:13;;;;;;;16.63;10.23;;;5.40;99.90;;;;;;5977169;23;20039;-89
2022/09/29 06:53:39;;;;;;;16.90;11.70;;;5.50;99.90;;;;;;5973463;24;20024;-89
2022/09/29 06:56:06;;;;;;;21.35;12.15;;;5.50;99.90;;;;;;5976429;23;20031;-88
2022/09/29 06:58:31;;;;;;;21.55;10.93;;;5.60;99.90;;;;;;5974445;24;20023;-89
2022/09/29 07:01:01;;;;;;;19.48;13.48;;;5.60;99.90;;;;;;5974853;24;20043;-88
2022/09/29 07:03:28;;;;;;;20.55;12.50;;;5.70;99.90;;;;;;5949286;24;20056;-88
2022/09/29 07:05:54;;;;;;;18.60;13.60;;;5.70;99.90;;;;;;5973864;24;20074;-88
2022/09/29 07:08:19;;;;;;;23.27;14.63;;;5.80;99.90;;;;;;5975443;24;20024;-89
2022/09/29 07:10:45;;;;;;;20.85;14.07;;;5.90;99.90;;;;;;5973507;24;20044;-88
2022/09/29 07:13:11;;;;;;;15.98;11.02;;;5.90;99.90;;;;;;5973003;24;20027;-87
2022/09/29 07:15:37;;;;;;;18.98;13.48;;;6.00;99.90;;;;;;5974595;24;20372;-87
2022/09/29 07:18:03;;;;;;;21.23;14.32;;;6.00;99.90;;;;;;5975366;23;20154;-88
2022/09/29 07:20:30;;;;;;;23.38;14.60;;;6.10;99.90;;;;;;5973820;24;20084;-88
2022/09/29 07:22:56;;;;;;;22.42;15.45;;;6.20;99.90;;;;;;5973517;24;20026;-88
2022/09/29 07:25:23;;;;;;;18.67;14.73;;;6.30;99.90;;;;;;5975528;23;20089;-88
2022/09/29 07:27:50;;;;;;;18.33;12.38;;;6.30;99.90;;;;;;5973095;24;20044;-88
2022/09/29 07:30:17;;;;;;;17.90;11.27;;;6.40;99.90;;;;;;5975099;23;20391;-87
2022/09/29 07:32:43;;;;;;;19.77;13.88;;;6.40;99.90;;;;;;5975573;23;20427;-88
2022/09/29 07:35:08;;;;;;;27.17;24.48;;;6.50;99.90;;;;;;5975110;23;20016;-85
2022/09/29 07:37:34;;;;;;;20.95;15.35;;;6.70;99.90;;;;;;5974917;24;20038;-88
2022/09/29 07:40:00;;;;;;;19.08;12.13;;;6.70;99.90;;;;;;5972062;24;20466;-87
2022/09/29 07:42:27;;;;;;;21.48;15.75;;;6.70;99.90;;;;;;5975116;24;20036;-86
2022/09/29 07:44:52;;;;;;;21.13;14.82;;;6.80;99.90;;;;;;5972482;24;20013;-87
2022/09/29 07:47:18;;;;;;;21.45;15.65;;;6.80;99.90;;;;;;5973576;24;20312;-86
2022/09/29 07:49:44;;;;;;;22.73;17.45;;;6.90;99.90;;;;;;5973374;23;20079;-86
2022/09/29 07:52:11;;;;;;;22.40;15.25;;;6.90;99.90;;;;;;5951333;24;20028;-87
2022/09/29 07:54:37;;;;;;;23.52;18.05;;;7.00;99.90;;;;;;5973356;24;20020;-86
2022/09/29 07:57:03;;;;;;;19.38;13.98;;;7.00;99.90;;;;;;5975033;24;20508;-87
2022/09/29 07:59:29;;;;;;;23.50;17.02;;;7.10;99.90;;;;;;5972762;24;20016;-87
2022/09/29 08:01:55;;;;;;;21.42;16.55;;;7.10;99.90;;;;;;5974371;23;20017;-86
2022/09/29 08:04:21;;;;;;;22.02;18.25;;;7.10;99.90;;;;;;5973368;24;20064;-87
2022/09/29 08:06:47;;;;;;;25.67;17.77;;;7.20;99.90;;;;;;5974170;23;20017;-86
2022/09/29 08:09:13;;;;;;;21.58;18.17;;;7.30;99.90;;;;;;5974352;24;20039;-87
2022/09/29 08:11:41;;;;;;;30.15;27.00;;;7.30;99.90;;;;;;5973321;24;20016;-87
2022/09/29 08:14:08;;;;;;;30.73;27.48;;;7.50;99.90;;;;;;5972070;24;20075;-87
2022/09/29 08:16:35;;;;;;;28.23;25.42;;;7.50;99.90;;;;;;5975742;23;20047;-86
2022/09/29 08:19:01;;;;;;;24.75;18.48;;;7.60;99.90;;;;;;5974161;24;20015;-87
2022/09/29 08:21:28;;;;;;;23.75;18.88;;;7.70;99.90;;;;;;5976795;23;20054;-86
2022/09/29 08:23:54;;;;;;;22.98;16.65;;;7.70;99.90;;;;;;5975157;24;20012;-86
2022/09/29 08:26:21;;;;;;;27.77;19.00;;;7.80;99.90;;;;;;5974895;24;20020;-87
2022/09/29 08:28:47;;;;;;;25.45;18.23;;;7.80;99.90;;;;;;5975762;23;20012;-87
2022/09/29 08:31:19;;;;;;;24.50;18.30;;;8.00;99.90;;;;;;5975903;24;20352;-87
2022/09/29 08:33:48;;;;;;;22.27;17.88;;;8.00;99.90;;;;;;5976829;23;20024;-87
2022/09/29 08:36:15;;;;;;;31.77;28.33;;;8.10;99.90;;;;;;5974262;24;20023;-88
2022/09/29 08:38:49;;;;;;;30.40;21.38;;;8.20;99.90;;;;;;5977519;23;20016;-87
2022/09/29 08:41:40;;;;;;;24.50;18.73;;;8.30;99.90;;;;;;5974472;24;20020;-87
2022/09/29 08:44:10;;;;;;;30.13;27.02;;;8.40;99.90;;;;;;5972185;24;20148;-87
2022/09/29 08:46:45;;;;;;;22.75;17.73;;;8.50;99.90;;;;;;5975999;24;20104;-88
2022/09/29 08:49:53;;;;;;;28.15;25.30;;;8.60;99.90;;;;;;5977422;23;20380;-89
2022/09/29 08:52:31;;;;;;;28.02;25.13;;;8.70;99.90;;;;;;5952281;24;20020;-90
2022/09/29 08:55:32;;;;;;;24.20;18.90;;;8.80;99.90;;;;;;5975329;24;20046;-86
2022/09/29 08:58:00;;;;;;;22.30;16.50;;;8.80;99.90;;;;;;5965991;24;20020;-87
2022/09/29 09:00:39;;;;;;;27.27;24.48;;;8.90;99.90;;;;;;5976096;23;20020;-87
2022/09/29 09:03:12;;;;;;;29.48;26.50;;;9.00;99.90;;;;;;5976747;23;20027;-88
2022/09/29 09:06:10;;;;;;;30.10;27.10;;;9.10;99.90;;;;;;5975586;23;20012;-87
2022/09/29 09:08:49;;;;;;;29.70;26.73;;;9.20;99.90;;;;;;5973200;24;20016;-87
2022/09/29 09:11:23;;;;;;;28.65;25.83;;;9.30;99.90;;;;;;5973757;24;20008;-87
2022/09/29 09:14:28;;;;;;;28.05;25.15;;;9.40;99.90;;;;;;5976790;23;20398;-88
2022/09/29 09:17:10;;;;;;;25.92;23.30;;;9.40;99.90;;;;;;5975989;24;20394;-89
2022/09/29 09:20:11;;;;;;;24.00;20.35;;;9.50;99.90;;;;;;5976131;23;20024;-88
2022/09/29 09:22:45;;;;;;;21.42;17.35;;;9.60;99.90;;;;;;5977698;23;20012;-88
2022/09/29 09:25:31;;;;;;;28.85;25.85;;;9.60;99.90;;;;;;5976578;24;20012;-87
2022/09/29 09:28:29;;;;;;;27.40;24.75;;;9.70;99.90;;;;;;5973176;24;20016;-88
2022/09/29 09:31:25;;;;;;;25.40;22.90;;;9.80;99.90;;;;;;5975894;24;20017;-89
2022/09/29 09:33:57;;;;;;;24.42;21.83;;;9.90;99.90;;;;;;5975057;24;20036;-88
2022/09/29 09:36:31;;;;;;;23.77;21.30;;;10.00;99.90;;;;;;5975737;24;20051;-88
2022/09/29 09:39:03;;;;;;;25.77;23.17;;;10.10;99.90;;;;;;5975089;24;20347;-88
2022/09/29 09:41:30;;;;;;;23.92;21.48;;;10.20;99.90;;;;;;5975168;24;20061;-89
2022/09/29 09:44:12;;;;;;;22.90;20.60;;;10.30;99.90;;;;;;5975723;24;20076;-89
2022/09/29 09:46:48;;;;;;;22.33;20.08;;;10.40;99.90;;;;;;5974394;24;20095;-89
2022/09/29 09:49:42;;;;;;;19.15;17.15;;;10.50;99.90;;;;;;5974783;24;20360;-89
2022/09/29 09:52:18;;;;;;;21.13;18.77;;;10.50;99.90;;;;;;5976409;23;20022;-89
2022/09/29 09:54:57;;;;;;;20.38;18.33;;;10.60;99.90;;;;;;5973910;24;20100;-88
2022/09/29 09:57:49;;;;;;;18.92;16.92;;;10.70;99.90;;;;;;5975966;23;20084;-88
2022/09/29 10:00:26;;;;;;;17.33;15.63;;;10.80;99.90;;;;;;5988390;23;20017;-88
2022/09/29 10:02:54;;;;;;;17.05;15.35;;;10.90;99.90;;;;;;5975911;24;20112;-89
2022/09/29 10:05:25;;;;;;;15.60;14.00;;;10.90;99.90;;;;;;5974438;24;20028;-91
2022/09/29 10:07:52;;;;;;;15.18;13.68;;;11.00;99.90;;;;;;5974380;24;20422;-88
2022/09/29 10:10:29;;;;;;;15.88;13.85;;;11.00;99.90;;;;;;5975918;23;20012;-88
2022/09/29 10:13:05;;;;;;;14.93;13.35;;;11.10;99.90;;;;;;5976176;23;20091;-91
2022/09/29 10:15:50;;;;;;;14.85;13.23;;;11.10;99.90;;;;;;5975333;23;20018;-90
2022/09/29 10:18:28;;;;;;;13.70;12.07;;;11.20;99.90;;;;;;5975038;24;20028;-89
2022/09/29 10:20:54;;;;;;;13.75;12.35;;;11.30;99.90;;;;;;5999671;23;20024;-90
2022/09/29 10:23:30;;;;;;;13.00;11.60;;;11.30;99.90;;;;;;5977228;24;20140;-89
2022/09/29 10:26:05;;;;;;;13.38;12.00;;;11.30;99.90;;;;;;5974621;24;20024;-91
2022/09/29 10:28:41;;;;;;;13.82;12.32;;;11.30;99.90;;;;;;5976997;24;20470;-89
2022/09/29 10:31:26;;;;;;;15.02;13.43;;;11.30;99.90;;;;;;5975825;24;20107;-88
2022/09/29 10:34:14;;;;;;;14.48;12.70;;;11.40;99.90;;;;;;5973299;24;20020;-88
2022/09/29 10:36:53;;;;;;;13.45;12.05;;;11.40;99.90;;;;;;5975910;23;20335;-88
2022/09/29 10:39:31;;;;;;;13.30;11.82;;;11.50;99.90;;;;;;5972651;24;20020;-88
2022/09/29 10:41:57;;;;;;;13.18;11.77;;;11.50;99.90;;;;;;5950918;24;20443;-87
2022/09/29 10:44:22;;;;;;;13.98;11.60;;;11.60;99.90;;;;;;5975590;24;20051;-88
2022/09/29 10:46:53;;;;;;;12.57;11.27;;;11.60;99.90;;;;;;5976260;24;20036;-88
2022/09/29 10:49:21;;;;;;;12.55;11.27;;;11.60;99.90;;;;;;5976605;23;20052;-88
2022/09/29 10:52:01;;;;;;;14.55;11.50;;;11.70;99.90;;;;;;5972907;24;20091;-88
2022/09/29 10:54:30;;;;;;;12.07;10.27;;;11.70;99.90;;;;;;5974540;24;20041;-87
2022/09/29 10:56:57;;;;;;;9.82;8.48;;;11.70;99.90;;;;;;5950688;24;20039;-87
2022/09/29 10:59:24;;;;;;;9.93;7.63;;;11.80;99.90;;;;;;5974977;24;20016;-87
2022/09/29 11:01:58;;;;;;;9.75;8.13;;;11.80;99.90;;;;;;5972743;24;20814;-88
2022/09/29 11:04:35;;;;;;;10.43;8.73;;;11.90;99.90;;;;;;5972974;24;20354;-87
2022/09/29 11:07:10;;;;;;;11.07;9.75;;;11.90;99.90;;;;;;5997485;23;20144;-87
2022/09/29 11:09:42;;;;;;;9.95;8.18;;;11.90;99.90;;;;;;5972934;23;20428;-88
2022/09/29 11:12:37;;;;;;;10.77;8.70;;;12.00;99.90;;;;;;5950972;24;20027;-88
2022/09/29 11:15:22;;;;;;;9.60;7.63;;;12.00;99.90;;;;;;5984113;23;20023;-89
2022/09/29 11:17:50;;;;;;;9.25;7.90;;;12.10;99.90;;;;;;5972878;24;20016;-88
2022/09/29 11:20:17;;;;;;;10.35;8.32;;;12.10;99.90;;;;;;5975091;23;20467;-90
2022/09/29 11:22:57;;;;;;;10.10;8.32;;;12.10;99.90;;;;;;5973170;24;20016;-87
2022/09/29 11:25:47;;;;;;;10.27;7.63;;;12.20;99.90;;;;;;5975973;24;20047;-87
2022/09/29 11:28:38;;;;;;;9.88;8.05;;;12.30;99.90;;;;;;5974099;24;20020;-87
2022/09/29 11:31:46;;;;;;;10.88;7.85;;;12.30;99.90;;;;;;5973803;24;20024;-87
2022/09/29 11:34:31;;;;;;;9.40;7.63;;;12.40;99.90;;;;;;5962927;23;20020;-87
2022/09/29 11:37:22;;;;;;;9.07;7.75;;;12.50;99.90;;;;;;5974820;23;20019;-87
2022/09/29 11:39:54;;;;;;;9.27;7.47;;;12.50;99.90;;;;;;5973074;24;20418;-87
2022/09/29 11:42:40;;;;;;;9.75;7.13;;;12.60;99.90;;;;;;5975202;24;20656;-87
2022/09/29 11:45:16;;;;;;;8.13;5.20;;;12.60;99.90;;;;;;5972542;24;20051;-87
2022/09/29 11:47:51;;;;;;;5.68;3.22;;;12.70;99.90;;;;;;5972180;24;20016;-88
2022/09/29 11:50:58;;;;;;;6.88;3.45;;;12.70;99.90;;;;;;5975740;23;20043;-87
2022/09/29 11:53:43;;;;;;;6.57;3.88;;;12.80;99.90;;;;;;5965528;24;20338;-86
2022/09/29 11:57:01;;;;;;;8.95;5.72;;;12.80;99.90;;;;;;5975830;24;20411;-88
2022/09/29 11:59:38;;;;;;;4.40;1.83;;;12.90;99.90;;;;;;5914521;24;20035;-88
2022/09/29 12:02:20;;;;;;;5.22;2.20;;;12.90;99.90;;;;;;5976838;24;20024;-87
2022/09/29 12:05:13;;;;;;;4.70;2.40;;;12.90;99.90;;;;;;5972320;24;20028;-87
2022/09/29 12:07:56;;;;;;;5.38;2.47;;;12.90;99.90;;;;;;5977305;23;20024;-87
2022/09/29 12:10:43;;;;;;;4.07;1.88;;;12.90;99.90;;;;;;5975658;24;20020;-87
2022/09/29 12:13:20;;;;;;;4.18;1.90;;;12.90;99.90;;;;;;5977354;23;20013;-87
2022/09/29 12:15:53;;;;;;;1.83;0.90;;;12.90;99.90;;;;;;5974500;24;20016;-88
2022/09/29 12:18:42;;;;;;;0.60;0.60;;;12.90;99.90;;;;;;5975222;24;20363;-87
2022/09/29 12:21:10;;;;;;;4.35;1.70;;;12.90;99.90;;;;;;5975118;24;20016;-87
2022/09/29 12:23:39;;;;;;;3.80;1.70;;;13.00;99.90;;;;;;5976974;23;20076;-88
2022/09/29 12:26:20;;;;;;;5.28;2.40;;;13.00;99.90;;;;;;5977443;23;20016;-88
2022/09/29 12:28:57;;;;;;;5.25;2.70;;;13.00;99.90;;;;;;5974046;24;20503;-88
2022/09/29 12:31:29;;;;;;;6.68;2.70;;;13.10;99.90;;;;;;5977318;23;20316;-88
2022/09/29 12:34:33;;;;;;;5.18;2.70;;;13.10;99.90;;;;;;5976478;23;20387;-88
2022/09/29 12:37:01;;;;;;;6.03;2.80;;;13.10;99.90;;;;;;5977691;24;20368;-87
2022/09/29 12:40:00;;;;;;;5.25;3.00;;;13.10;99.90;;;;;;5975459;24;20074;-89
2022/09/29 12:42:59;;;;;;;6.05;2.85;;;13.20;99.90;;;;;;5889825;24;20456;-88
2022/09/29 12:45:38;;;;;;;6.20;2.83;;;13.20;99.90;;;;;;5869076;24;20138;-89
2022/09/29 12:48:15;;;;;;;5.78;2.90;;;13.30;99.90;;;;;;5868170;24;20029;-88
2022/09/29 12:50:52;;;;;;;4.90;2.60;;;13.40;99.90;;;;;;5890843;24;20021;-89
2022/09/29 12:53:38;;;;;;;5.85;2.78;;;13.40;99.90;;;;;;5868838;24;20028;-89
2022/09/29 12:56:20;;;;;;;4.57;2.35;;;13.40;99.90;;;;;;5845871;24;20025;-89
2022/09/29 12:59:18;;;;;;;4.50;2.22;;;13.40;99.90;;;;;;5867576;24;20029;-88
2022/09/29 13:01:50;;;;;;;4.15;2.00;;;13.40;99.90;;;;;;5787559;24;20062;-88
2022/09/29 13:04:35;;;;;;;4.95;2.10;;;13.40;99.90;;;;;;5808726;24;20105;-88
2022/09/29 13:07:18;;;;;;;6.20;2.28;;;13.40;99.90;;;;;;5788837;24;20080;-90
2022/09/29 13:10:10;;;;;;;3.50;2.28;;;13.50;99.90;;;;;;5766707;24;20408;-88
2022/09/29 13:13:06;;;;;;;6.28;3.20;;;13.50;99.90;;;;;;5787158;24;20022;-88
2022/09/29 13:15:48;;;;;;;6.15;3.10;;;13.50;99.90;;;;;;5810807;24;20037;-88